SIA528 WSSS-VOMM
Flight info
| Callsign | SIA528 |
|---|---|
| Flight time | N/A |
| Altitude | 38000 |
| Route | AROSO3A AROSO Y513 KALIL Y504 BILIK G582 PUGER P574 GIRNA V6 AVMOR AVMOR2F |
| Aircraft | B77W/H-SDE1E2E3FGHIJ4J5M1P2RWXYZ/LB1D1 |
Departure
| Time | N/A |
|---|---|
| Airport | Singapore Changi Airport (WSSS) |
Arrival
| Time | 2026-05-03 23:16 |
|---|---|
| Airport | Chennai International Airport (VOMM) |
| Time | Latitude | Longitude | Altitude | Speed | Heading |
|---|---|---|---|---|---|
| 2026-05-03 20:15 | 3.09913 | 101.46255 | 37870 ft | 490 kts | 307° |
| 2026-05-03 20:15 | 3.13959 | 101.40750 | 37865 ft | 491 kts | 307° |
| 2026-05-03 20:16 | 3.17998 | 101.35255 | 37865 ft | 490 kts | 306° |
| 2026-05-03 20:16 | 3.22050 | 101.29739 | 37853 ft | 490 kts | 306° |
| 2026-05-03 20:17 | 3.26088 | 101.24244 | 37845 ft | 490 kts | 307° |
| 2026-05-03 20:17 | 3.30117 | 101.18758 | 37850 ft | 490 kts | 307° |
| 2026-05-03 20:18 | 3.33480 | 101.12847 | 37839 ft | 491 kts | 290° |
| 2026-05-03 20:18 | 3.34910 | 101.06220 | 37847 ft | 492 kts | 275° |
| 2026-05-03 20:19 | 3.35386 | 100.99384 | 37834 ft | 492 kts | 274° |
| 2026-05-03 20:19 | 3.35831 | 100.92596 | 37834 ft | 491 kts | 274° |
| 2026-05-03 20:20 | 3.36279 | 100.85795 | 37835 ft | 491 kts | 274° |
| 2026-05-03 20:20 | 3.36727 | 100.78973 | 37834 ft | 491 kts | 274° |
| 2026-05-03 20:21 | 3.37174 | 100.72156 | 37835 ft | 492 kts | 274° |
| 2026-05-03 20:21 | 3.37620 | 100.65339 | 37839 ft | 492 kts | 274° |
| 2026-05-03 20:22 | 3.38066 | 100.58495 | 37841 ft | 491 kts | 274° |
| 2026-05-03 20:22 | 3.38510 | 100.51685 | 37844 ft | 491 kts | 273° |
| 2026-05-03 20:23 | 3.38952 | 100.44901 | 37848 ft | 491 kts | 274° |
| 2026-05-03 20:23 | 3.39396 | 100.38065 | 37848 ft | 491 kts | 274° |
| 2026-05-03 20:24 | 3.40038 | 100.31241 | 37843 ft | 491 kts | 282° |
| 2026-05-03 20:24 | 3.42381 | 100.24857 | 37848 ft | 493 kts | 298° |
| 2026-05-03 20:25 | 3.45666 | 100.18812 | 37846 ft | 490 kts | 299° |
| 2026-05-03 20:25 | 3.48953 | 100.12817 | 37847 ft | 492 kts | 299° |
| 2026-05-03 20:26 | 3.52221 | 100.06857 | 37848 ft | 492 kts | 299° |
| 2026-05-03 20:26 | 3.55518 | 100.00841 | 37848 ft | 491 kts | 299° |
| 2026-05-03 20:27 | 3.58792 | 99.94868 | 37848 ft | 491 kts | 299° |
| 2026-05-03 20:27 | 3.62082 | 99.88863 | 37848 ft | 490 kts | 299° |
| 2026-05-03 20:28 | 3.65377 | 99.82846 | 37849 ft | 492 kts | 299° |
| 2026-05-03 20:28 | 3.68654 | 99.76864 | 37850 ft | 491 kts | 299° |
| 2026-05-03 20:29 | 3.71951 | 99.70843 | 37849 ft | 492 kts | 299° |
| 2026-05-03 20:29 | 3.75234 | 99.64846 | 37846 ft | 492 kts | 299° |
| 2026-05-03 20:30 | 3.78528 | 99.58829 | 37841 ft | 492 kts | 299° |
| 2026-05-03 20:30 | 3.81828 | 99.52798 | 37834 ft | 492 kts | 299° |
| 2026-05-03 20:31 | 3.85097 | 99.46822 | 37832 ft | 492 kts | 299° |
| 2026-05-03 20:31 | 3.88392 | 99.40799 | 37834 ft | 491 kts | 299° |
| 2026-05-03 20:32 | 3.91674 | 99.34799 | 37832 ft | 492 kts | 299° |
| 2026-05-03 20:32 | 3.94942 | 99.28822 | 37826 ft | 491 kts | 299° |
| 2026-05-03 20:33 | 3.98215 | 99.22835 | 37826 ft | 491 kts | 299° |
| 2026-05-03 20:33 | 4.01497 | 99.16829 | 37827 ft | 491 kts | 299° |
| 2026-05-03 20:34 | 4.04759 | 99.10860 | 37828 ft | 491 kts | 299° |
| 2026-05-03 20:34 | 4.08037 | 99.04860 | 37828 ft | 490 kts | 299° |
| 2026-05-03 20:35 | 4.11313 | 98.98863 | 37829 ft | 491 kts | 299° |
| 2026-05-03 20:35 | 4.14586 | 98.92870 | 37830 ft | 491 kts | 299° |
| 2026-05-03 20:36 | 4.17848 | 98.86894 | 37829 ft | 492 kts | 299° |
| 2026-05-03 20:36 | 4.21134 | 98.80875 | 37834 ft | 492 kts | 299° |
| 2026-05-03 20:37 | 4.24423 | 98.74848 | 37845 ft | 492 kts | 299° |
| 2026-05-03 20:37 | 4.27697 | 98.68847 | 37851 ft | 492 kts | 299° |
| 2026-05-03 20:38 | 4.30991 | 98.62809 | 37852 ft | 492 kts | 299° |
| 2026-05-03 20:38 | 4.34264 | 98.56807 | 37855 ft | 492 kts | 300° |
| 2026-05-03 20:39 | 4.37558 | 98.50765 | 37854 ft | 493 kts | 300° |
| 2026-05-03 20:39 | 4.40843 | 98.44739 | 37856 ft | 494 kts | 300° |
| 2026-05-03 20:40 | 4.44133 | 98.38701 | 37856 ft | 493 kts | 300° |
| 2026-05-03 20:40 | 4.47426 | 98.32658 | 37856 ft | 493 kts | 299° |
| 2026-05-03 20:41 | 4.50731 | 98.26590 | 37847 ft | 493 kts | 299° |
| 2026-05-03 20:41 | 4.54017 | 98.20556 | 37843 ft | 495 kts | 299° |
| 2026-05-03 20:42 | 4.57336 | 98.14460 | 37850 ft | 495 kts | 299° |
| 2026-05-03 20:42 | 4.60623 | 98.08421 | 37842 ft | 494 kts | 300° |
| 2026-05-03 20:43 | 4.63920 | 98.02363 | 37846 ft | 495 kts | 299° |
| 2026-05-03 20:43 | 4.67215 | 97.96306 | 37843 ft | 493 kts | 299° |
| 2026-05-03 20:44 | 4.70485 | 97.90292 | 37850 ft | 493 kts | 299° |
| 2026-05-03 20:44 | 4.73774 | 97.84245 | 37854 ft | 496 kts | 299° |
| 2026-05-03 20:45 | 4.77071 | 97.78179 | 37856 ft | 494 kts | 299° |
| 2026-05-03 20:45 | 4.80362 | 97.72124 | 37862 ft | 494 kts | 299° |
| 2026-05-03 20:46 | 4.83652 | 97.66070 | 37858 ft | 493 kts | 299° |
| 2026-05-03 20:46 | 4.86938 | 97.60020 | 37860 ft | 492 kts | 299° |
| 2026-05-03 20:47 | 4.90195 | 97.54024 | 37863 ft | 493 kts | 299° |
| 2026-05-03 20:47 | 4.93469 | 97.47993 | 37873 ft | 493 kts | 300° |
| 2026-05-03 20:48 | 4.96775 | 97.41901 | 37866 ft | 493 kts | 299° |
| 2026-05-03 20:48 | 5.00056 | 97.35855 | 37866 ft | 493 kts | 299° |
| 2026-05-03 20:49 | 5.03325 | 97.29829 | 37865 ft | 491 kts | 299° |
| 2026-05-03 20:49 | 5.06601 | 97.23789 | 37865 ft | 490 kts | 299° |
| 2026-05-03 20:50 | 5.09840 | 97.17813 | 37875 ft | 491 kts | 300° |
| 2026-05-03 20:50 | 5.13116 | 97.11770 | 37888 ft | 491 kts | 299° |
| 2026-05-03 20:51 | 5.16363 | 97.05778 | 37890 ft | 492 kts | 299° |
| 2026-05-03 20:51 | 5.19626 | 96.99755 | 37891 ft | 493 kts | 299° |
| 2026-05-03 20:52 | 5.22891 | 96.93726 | 37883 ft | 491 kts | 299° |
| 2026-05-03 20:52 | 5.26167 | 96.87675 | 37879 ft | 490 kts | 299° |
| 2026-05-03 20:53 | 5.29419 | 96.81667 | 37879 ft | 490 kts | 299° |
| 2026-05-03 20:53 | 5.32672 | 96.75656 | 37886 ft | 489 kts | 299° |
| 2026-05-03 20:54 | 5.35946 | 96.69604 | 37889 ft | 491 kts | 299° |
| 2026-05-03 20:54 | 5.40826 | 96.60581 | 37885 ft | 491 kts | 299° |
| 2026-05-03 20:55 | 5.44062 | 96.54593 | 37888 ft | 489 kts | 299° |
| 2026-05-03 20:55 | 5.47314 | 96.48576 | 37883 ft | 490 kts | 299° |
| 2026-05-03 20:56 | 5.50560 | 96.42568 | 37879 ft | 489 kts | 299° |
| 2026-05-03 20:56 | 5.53802 | 96.36567 | 37874 ft | 490 kts | 299° |
| 2026-05-03 20:57 | 5.57054 | 96.30544 | 37874 ft | 490 kts | 299° |
| 2026-05-03 20:57 | 5.60306 | 96.24519 | 37869 ft | 490 kts | 299° |
| 2026-05-03 20:58 | 5.63563 | 96.18484 | 37875 ft | 489 kts | 299° |
| 2026-05-03 20:58 | 5.66792 | 96.12498 | 37875 ft | 490 kts | 299° |
| 2026-05-03 20:59 | 5.70054 | 96.06449 | 37877 ft | 490 kts | 299° |
| 2026-05-03 20:59 | 5.73306 | 96.00417 | 37871 ft | 490 kts | 299° |
| 2026-05-03 21:00 | 5.76009 | 95.95403 | 37870 ft | 490 kts | 299° |
| 2026-05-03 21:00 | 5.79790 | 95.88385 | 37864 ft | 490 kts | 299° |
| 2026-05-03 21:01 | 5.83043 | 95.82346 | 37861 ft | 490 kts | 299° |
| 2026-05-03 21:01 | 5.86279 | 95.76335 | 37860 ft | 490 kts | 299° |
| 2026-05-03 21:02 | 5.89537 | 95.70283 | 37842 ft | 489 kts | 299° |
| 2026-05-03 21:02 | 5.92748 | 95.64317 | 37845 ft | 490 kts | 299° |
| 2026-05-03 21:03 | 5.95986 | 95.58298 | 37851 ft | 490 kts | 298° |
| 2026-05-03 21:03 | 5.99242 | 95.52243 | 37851 ft | 490 kts | 298° |
| 2026-05-03 21:04 | 6.02527 | 95.46228 | 37850 ft | 488 kts | 299° |
| 2026-05-03 21:04 | 6.05823 | 95.40268 | 37852 ft | 489 kts | 299° |
| 2026-05-03 21:05 | 6.09125 | 95.34293 | 37849 ft | 488 kts | 299° |
| 2026-05-03 21:05 | 6.12413 | 95.28336 | 37846 ft | 489 kts | 299° |
| 2026-05-03 21:06 | 6.15715 | 95.22349 | 37847 ft | 488 kts | 299° |
| 2026-05-03 21:06 | 6.19005 | 95.16381 | 37846 ft | 487 kts | 299° |
| 2026-05-03 21:07 | 6.22300 | 95.10402 | 37849 ft | 488 kts | 299° |
| 2026-05-03 21:07 | 6.25598 | 95.04436 | 37849 ft | 487 kts | 299° |
| 2026-05-03 21:08 | 6.28877 | 94.98533 | 37849 ft | 488 kts | 299° |
| 2026-05-03 21:08 | 6.32191 | 94.92562 | 37848 ft | 487 kts | 299° |
| 2026-05-03 21:09 | 6.35522 | 94.86558 | 37847 ft | 488 kts | 299° |
| 2026-05-03 21:09 | 6.38813 | 94.80624 | 37836 ft | 488 kts | 299° |
| 2026-05-03 21:10 | 6.42122 | 94.74657 | 37831 ft | 488 kts | 299° |
| 2026-05-03 21:10 | 6.45443 | 94.68663 | 37828 ft | 488 kts | 299° |
| 2026-05-03 21:11 | 6.48732 | 94.62726 | 37831 ft | 489 kts | 299° |
| 2026-05-03 21:11 | 6.52053 | 94.56729 | 37828 ft | 490 kts | 299° |
| 2026-05-03 21:12 | 6.55372 | 94.50732 | 37827 ft | 490 kts | 299° |
| 2026-05-03 21:12 | 6.58668 | 94.44777 | 37828 ft | 490 kts | 299° |
| 2026-05-03 21:13 | 6.61877 | 94.38711 | 37832 ft | 488 kts | 294° |
| 2026-05-03 21:13 | 6.64637 | 94.32426 | 37832 ft | 490 kts | 294° |
| 2026-05-03 21:14 | 6.67409 | 94.26147 | 37839 ft | 492 kts | 294° |
| 2026-05-03 21:14 | 6.70200 | 94.19871 | 37841 ft | 491 kts | 294° |
| 2026-05-03 21:15 | 6.72989 | 94.13619 | 37847 ft | 491 kts | 294° |
| 2026-05-03 21:15 | 6.75795 | 94.07346 | 37847 ft | 491 kts | 294° |
| 2026-05-03 21:16 | 6.78602 | 94.01072 | 37846 ft | 491 kts | 294° |
| 2026-05-03 21:16 | 6.81398 | 93.94823 | 37850 ft | 492 kts | 294° |
| 2026-05-03 21:17 | 6.83737 | 93.89598 | 37850 ft | 491 kts | 294° |
| 2026-05-03 21:17 | 6.87015 | 93.82272 | 37853 ft | 492 kts | 294° |
| 2026-05-03 21:18 | 6.89827 | 93.75984 | 37860 ft | 492 kts | 294° |
| 2026-05-03 21:18 | 6.92629 | 93.69717 | 37860 ft | 491 kts | 294° |
| 2026-05-03 21:19 | 6.95427 | 93.63457 | 37858 ft | 489 kts | 295° |
| 2026-05-03 21:19 | 6.98220 | 93.57205 | 37855 ft | 490 kts | 294° |
| 2026-05-03 21:20 | 7.01019 | 93.50939 | 37850 ft | 489 kts | 294° |
| 2026-05-03 21:20 | 7.03807 | 93.44694 | 37849 ft | 491 kts | 294° |
| 2026-05-03 21:21 | 7.06614 | 93.38403 | 37851 ft | 491 kts | 294° |
| 2026-05-03 21:21 | 7.09392 | 93.32173 | 37849 ft | 491 kts | 294° |
| 2026-05-03 21:22 | 7.12192 | 93.25895 | 37847 ft | 489 kts | 294° |
| 2026-05-03 21:22 | 7.14973 | 93.19654 | 37851 ft | 489 kts | 294° |
| 2026-05-03 21:23 | 7.17755 | 93.13409 | 37848 ft | 486 kts | 294° |
| 2026-05-03 21:23 | 7.20532 | 93.07172 | 37849 ft | 489 kts | 294° |
| 2026-05-03 21:24 | 7.23297 | 93.00959 | 37851 ft | 489 kts | 294° |
| 2026-05-03 21:24 | 7.26076 | 92.94713 | 37843 ft | 489 kts | 294° |
| 2026-05-03 21:25 | 7.28859 | 92.88454 | 37836 ft | 489 kts | 294° |
| 2026-05-03 21:25 | 7.31649 | 92.82179 | 37833 ft | 487 kts | 294° |
| 2026-05-03 21:26 | 7.34396 | 92.75996 | 37829 ft | 486 kts | 294° |
| 2026-05-03 21:26 | 7.37172 | 92.69746 | 37835 ft | 487 kts | 294° |
| 2026-05-03 21:27 | 7.39934 | 92.63524 | 37834 ft | 487 kts | 294° |
| 2026-05-03 21:27 | 7.42699 | 92.57292 | 37835 ft | 488 kts | 294° |
| 2026-05-03 21:28 | 7.45472 | 92.51042 | 37836 ft | 487 kts | 294° |
| 2026-05-03 21:28 | 7.48220 | 92.44843 | 37839 ft | 486 kts | 294° |
| 2026-05-03 21:29 | 7.50979 | 92.38618 | 37845 ft | 485 kts | 294° |
| 2026-05-03 21:29 | 7.53733 | 92.32399 | 37843 ft | 485 kts | 294° |
| 2026-05-03 21:30 | 7.56482 | 92.26190 | 37845 ft | 485 kts | 294° |
| 2026-05-03 21:30 | 7.59228 | 92.19987 | 37846 ft | 485 kts | 294° |
| 2026-05-03 21:31 | 7.61961 | 92.13807 | 37847 ft | 485 kts | 294° |
| 2026-05-03 21:31 | 7.64699 | 92.07616 | 37848 ft | 483 kts | 294° |
| 2026-05-03 21:32 | 7.67429 | 92.01438 | 37846 ft | 483 kts | 294° |
| 2026-05-03 21:32 | 7.70169 | 91.95238 | 37848 ft | 483 kts | 294° |
| 2026-05-03 21:33 | 7.72886 | 91.89082 | 37846 ft | 482 kts | 294° |
| 2026-05-03 21:33 | 7.75612 | 91.82907 | 37849 ft | 481 kts | 294° |
| 2026-05-03 21:34 | 7.78323 | 91.76762 | 37850 ft | 479 kts | 294° |
| 2026-05-03 21:34 | 7.81031 | 91.70621 | 37849 ft | 482 kts | 294° |
| 2026-05-03 21:35 | 7.83783 | 91.64452 | 37848 ft | 483 kts | 295° |
| 2026-05-03 21:35 | 7.86601 | 91.58308 | 37847 ft | 481 kts | 295° |
| 2026-05-03 21:36 | 7.89395 | 91.52210 | 37849 ft | 479 kts | 295° |
| 2026-05-03 21:36 | 7.92192 | 91.46094 | 37850 ft | 482 kts | 294° |
| 2026-05-03 21:37 | 7.94987 | 91.39977 | 37846 ft | 483 kts | 294° |
| 2026-05-03 21:37 | 7.97810 | 91.33794 | 37848 ft | 483 kts | 294° |
| 2026-05-03 21:38 | 8.00614 | 91.27651 | 37850 ft | 483 kts | 294° |
| 2026-05-03 21:38 | 8.03422 | 91.21493 | 37850 ft | 483 kts | 294° |
| 2026-05-03 21:39 | 8.06227 | 91.15340 | 37852 ft | 482 kts | 294° |
| 2026-05-03 21:39 | 8.09032 | 91.09185 | 37848 ft | 482 kts | 294° |
| 2026-05-03 21:40 | 8.11815 | 91.03072 | 37852 ft | 482 kts | 294° |
| 2026-05-03 21:40 | 8.14615 | 90.96922 | 37842 ft | 482 kts | 294° |
| 2026-05-03 21:41 | 8.17416 | 90.90766 | 37834 ft | 483 kts | 294° |
| 2026-05-03 21:41 | 8.20214 | 90.84614 | 37830 ft | 483 kts | 294° |
| 2026-05-03 21:42 | 8.23022 | 90.78436 | 37833 ft | 483 kts | 294° |
| 2026-05-03 21:42 | 8.25836 | 90.72240 | 37837 ft | 484 kts | 294° |
| 2026-05-03 21:43 | 8.28632 | 90.66084 | 37841 ft | 484 kts | 294° |
| 2026-05-03 21:43 | 8.31443 | 90.59892 | 37842 ft | 483 kts | 294° |
| 2026-05-03 21:44 | 8.34245 | 90.53715 | 37841 ft | 483 kts | 294° |
| 2026-05-03 21:44 | 8.37051 | 90.47529 | 37844 ft | 484 kts | 294° |
| 2026-05-03 21:45 | 8.39850 | 90.41354 | 37847 ft | 484 kts | 294° |
| 2026-05-03 21:45 | 8.42640 | 90.35193 | 37847 ft | 484 kts | 294° |
| 2026-05-03 21:46 | 8.45440 | 90.29010 | 37848 ft | 484 kts | 294° |
| 2026-05-03 21:46 | 8.48243 | 90.22817 | 37846 ft | 484 kts | 294° |
| 2026-05-03 21:47 | 8.51039 | 90.16637 | 37848 ft | 484 kts | 294° |
| 2026-05-03 21:47 | 8.53836 | 90.10448 | 37848 ft | 484 kts | 294° |
| 2026-05-03 21:48 | 8.56621 | 90.04286 | 37847 ft | 483 kts | 294° |
| 2026-05-03 21:48 | 8.59424 | 89.98081 | 37850 ft | 484 kts | 294° |
| 2026-05-03 21:49 | 8.62221 | 89.91885 | 37846 ft | 484 kts | 294° |
| 2026-05-03 21:49 | 8.65012 | 89.85700 | 37845 ft | 484 kts | 293° |
| 2026-05-03 21:50 | 8.67800 | 89.79518 | 37845 ft | 483 kts | 294° |
| 2026-05-03 21:50 | 8.70574 | 89.73365 | 37848 ft | 484 kts | 293° |
| 2026-05-03 21:51 | 8.73372 | 89.67155 | 37846 ft | 484 kts | 293° |
| 2026-05-03 21:51 | 8.76168 | 89.60945 | 37848 ft | 484 kts | 293° |
| 2026-05-03 21:52 | 8.78951 | 89.54761 | 37849 ft | 483 kts | 293° |
| 2026-05-03 21:52 | 8.81742 | 89.48558 | 37847 ft | 484 kts | 293° |
| 2026-05-03 21:53 | 8.84515 | 89.42390 | 37847 ft | 484 kts | 293° |
| 2026-05-03 21:53 | 8.87295 | 89.36204 | 37848 ft | 484 kts | 293° |
| 2026-05-03 21:54 | 8.90079 | 89.30005 | 37849 ft | 482 kts | 293° |
| 2026-05-03 21:54 | 8.92848 | 89.23837 | 37840 ft | 483 kts | 293° |
| 2026-05-03 21:55 | 8.95632 | 89.17634 | 37830 ft | 483 kts | 293° |
| 2026-05-03 21:55 | 8.98414 | 89.11429 | 37827 ft | 484 kts | 293° |
| 2026-05-03 21:56 | 9.01179 | 89.05260 | 37830 ft | 485 kts | 293° |
| 2026-05-03 21:56 | 9.03979 | 88.99011 | 37830 ft | 485 kts | 293° |
| 2026-05-03 21:57 | 9.06753 | 88.92815 | 37830 ft | 485 kts | 293° |
| 2026-05-03 21:57 | 9.09537 | 88.86594 | 37830 ft | 484 kts | 293° |
| 2026-05-03 21:58 | 9.12304 | 88.80407 | 37828 ft | 483 kts | 293° |
| 2026-05-03 21:58 | 9.15070 | 88.74219 | 37835 ft | 484 kts | 293° |
| 2026-05-03 21:59 | 9.17840 | 88.68020 | 37842 ft | 484 kts | 293° |
| 2026-05-03 21:59 | 9.20621 | 88.61792 | 37839 ft | 486 kts | 293° |
| 2026-05-03 22:00 | 9.23385 | 88.55599 | 37840 ft | 486 kts | 293° |
| 2026-05-03 22:00 | 9.26172 | 88.49350 | 37837 ft | 486 kts | 293° |
| 2026-05-03 22:01 | 9.28928 | 88.43169 | 37838 ft | 485 kts | 293° |
| 2026-05-03 22:01 | 9.31697 | 88.36955 | 37843 ft | 485 kts | 292° |
| 2026-05-03 22:02 | 9.34471 | 88.30726 | 37845 ft | 485 kts | 292° |
| 2026-05-03 22:02 | 9.37244 | 88.24495 | 37846 ft | 486 kts | 292° |
| 2026-05-03 22:03 | 9.40023 | 88.18249 | 37849 ft | 486 kts | 293° |
| 2026-05-03 22:03 | 9.42785 | 88.12035 | 37846 ft | 486 kts | 292° |
| 2026-05-03 22:04 | 9.45569 | 88.05769 | 37845 ft | 487 kts | 292° |
| 2026-05-03 22:04 | 9.48335 | 87.99542 | 37848 ft | 486 kts | 292° |
| 2026-05-03 22:05 | 9.51118 | 87.93272 | 37847 ft | 486 kts | 292° |
| 2026-05-03 22:05 | 9.53884 | 87.87037 | 37849 ft | 487 kts | 292° |
| 2026-05-03 22:06 | 9.56662 | 87.80772 | 37847 ft | 486 kts | 292° |
| 2026-05-03 22:06 | 9.59422 | 87.74542 | 37848 ft | 486 kts | 292° |
| 2026-05-03 22:07 | 9.62183 | 87.68308 | 37848 ft | 485 kts | 292° |
| 2026-05-03 22:07 | 9.64951 | 87.62054 | 37846 ft | 485 kts | 292° |
| 2026-05-03 22:08 | 9.67703 | 87.55833 | 37841 ft | 485 kts | 292° |
| 2026-05-03 22:08 | 9.70464 | 87.49586 | 37840 ft | 485 kts | 292° |
| 2026-05-03 22:09 | 9.73226 | 87.43336 | 37828 ft | 485 kts | 293° |
| 2026-05-03 22:10 | 9.77348 | 87.34009 | 37827 ft | 486 kts | 293° |
| 2026-05-03 22:10 | 9.80199 | 87.27795 | 37829 ft | 485 kts | 294° |
| 2026-05-03 22:11 | 9.83042 | 87.21609 | 37828 ft | 485 kts | 294° |
| 2026-05-03 22:11 | 9.85878 | 87.15428 | 37829 ft | 485 kts | 294° |
| 2026-05-03 22:12 | 9.88730 | 87.09206 | 37828 ft | 485 kts | 293° |
| 2026-05-03 22:12 | 9.91554 | 87.03037 | 37830 ft | 484 kts | 294° |
| 2026-05-03 22:13 | 9.94392 | 86.96832 | 37828 ft | 484 kts | 294° |
| 2026-05-03 22:13 | 9.97230 | 86.90624 | 37828 ft | 484 kts | 294° |
| 2026-05-03 22:14 | 10.00039 | 86.84478 | 37828 ft | 484 kts | 293° |
| 2026-05-03 22:14 | 10.02880 | 86.78256 | 37832 ft | 484 kts | 293° |
| 2026-05-03 22:15 | 10.05702 | 86.72071 | 37837 ft | 484 kts | 293° |
| 2026-05-03 22:15 | 10.08522 | 86.65887 | 37842 ft | 484 kts | 293° |
| 2026-05-03 22:16 | 10.11355 | 86.59673 | 37839 ft | 484 kts | 293° |
| 2026-05-03 22:16 | 10.14179 | 86.53474 | 37838 ft | 484 kts | 293° |
| 2026-05-03 22:17 | 10.16990 | 86.47298 | 37841 ft | 484 kts | 293° |
| 2026-05-03 22:17 | 10.19818 | 86.41083 | 37843 ft | 484 kts | 293° |
| 2026-05-03 22:18 | 10.22630 | 86.34898 | 37845 ft | 483 kts | 293° |
| 2026-05-03 22:18 | 10.25441 | 86.28714 | 37846 ft | 483 kts | 293° |
| 2026-05-03 22:19 | 10.28252 | 86.22525 | 37842 ft | 482 kts | 293° |
| 2026-05-03 22:19 | 10.31047 | 86.16367 | 37841 ft | 483 kts | 293° |
| 2026-05-03 22:20 | 10.33865 | 86.10153 | 37843 ft | 484 kts | 293° |
| 2026-05-03 22:20 | 10.36666 | 86.03975 | 37837 ft | 483 kts | 293° |
| 2026-05-03 22:21 | 10.39471 | 85.97787 | 37836 ft | 483 kts | 293° |
| 2026-05-03 22:21 | 10.42270 | 85.91605 | 37826 ft | 482 kts | 293° |
| 2026-05-03 22:22 | 10.45071 | 85.85415 | 37823 ft | 481 kts | 293° |
| 2026-05-03 22:22 | 10.47846 | 85.79279 | 37826 ft | 480 kts | 293° |
| 2026-05-03 22:23 | 10.50636 | 85.73106 | 37824 ft | 480 kts | 293° |
| 2026-05-03 22:23 | 10.53438 | 85.66905 | 37825 ft | 480 kts | 293° |
| 2026-05-03 22:24 | 10.56222 | 85.60738 | 37821 ft | 480 kts | 293° |
| 2026-05-03 22:24 | 10.59008 | 85.54563 | 37820 ft | 481 kts | 293° |
| 2026-05-03 22:25 | 10.61793 | 85.48386 | 37825 ft | 481 kts | 293° |
| 2026-05-03 22:25 | 10.64566 | 85.42232 | 37822 ft | 481 kts | 293° |
| 2026-05-03 22:26 | 10.67353 | 85.36045 | 37828 ft | 480 kts | 293° |
| 2026-05-03 22:26 | 10.70117 | 85.29903 | 37831 ft | 480 kts | 293° |
| 2026-05-03 22:27 | 10.72903 | 85.23710 | 37822 ft | 479 kts | 293° |
| 2026-05-03 22:27 | 10.75660 | 85.17576 | 37829 ft | 479 kts | 293° |
| 2026-05-03 22:28 | 10.78439 | 85.11391 | 37821 ft | 479 kts | 293° |
| 2026-05-03 22:28 | 10.81208 | 85.05223 | 37825 ft | 479 kts | 293° |
| 2026-05-03 22:29 | 10.83975 | 84.99055 | 37829 ft | 479 kts | 293° |
| 2026-05-03 22:29 | 10.86750 | 84.92867 | 37819 ft | 479 kts | 293° |
| 2026-05-03 22:30 | 10.89506 | 84.86715 | 37808 ft | 478 kts | 293° |
| 2026-05-03 22:30 | 10.92265 | 84.80555 | 37810 ft | 478 kts | 293° |
| 2026-05-03 22:31 | 10.95005 | 84.74432 | 37797 ft | 477 kts | 293° |
| 2026-05-03 22:31 | 10.97800 | 84.68182 | 37806 ft | 488 kts | 293° |
| 2026-05-03 22:32 | 11.00646 | 84.61816 | 37806 ft | 503 kts | 294° |
| 2026-05-03 22:32 | 11.03560 | 84.55302 | 37805 ft | 506 kts | 293° |
| 2026-05-03 22:33 | 11.06464 | 84.48793 | 37806 ft | 505 kts | 293° |
| 2026-05-03 22:33 | 11.09366 | 84.42283 | 37806 ft | 505 kts | 293° |
| 2026-05-03 22:34 | 11.12269 | 84.35769 | 37804 ft | 506 kts | 293° |
| 2026-05-03 22:34 | 11.15173 | 84.29250 | 37806 ft | 505 kts | 293° |
| 2026-05-03 22:35 | 11.18054 | 84.22778 | 37807 ft | 504 kts | 293° |
| 2026-05-03 22:35 | 11.20955 | 84.16255 | 37806 ft | 504 kts | 293° |
| 2026-05-03 22:36 | 11.23828 | 84.09792 | 37807 ft | 504 kts | 293° |
| 2026-05-03 22:36 | 11.26727 | 84.03268 | 37806 ft | 504 kts | 293° |
| 2026-05-03 22:37 | 11.29609 | 83.96774 | 37806 ft | 505 kts | 293° |
| 2026-05-03 22:37 | 11.32504 | 83.90247 | 37807 ft | 504 kts | 293° |
| 2026-05-03 22:38 | 11.35409 | 83.83697 | 37807 ft | 504 kts | 293° |
| 2026-05-03 22:38 | 11.38278 | 83.77220 | 37807 ft | 504 kts | 292° |
| 2026-05-03 22:39 | 11.41166 | 83.70697 | 37807 ft | 504 kts | 292° |
| 2026-05-03 22:39 | 11.44047 | 83.64182 | 37804 ft | 505 kts | 292° |
| 2026-05-03 22:40 | 11.46924 | 83.57675 | 37802 ft | 506 kts | 292° |
| 2026-05-03 22:40 | 11.49812 | 83.51138 | 37802 ft | 506 kts | 292° |
| 2026-05-03 22:41 | 11.52690 | 83.44619 | 37800 ft | 506 kts | 292° |
| 2026-05-03 22:41 | 11.55566 | 83.38100 | 37800 ft | 506 kts | 292° |
| 2026-05-03 22:42 | 11.58586 | 83.31614 | 37809 ft | 508 kts | 298° |
| 2026-05-03 22:42 | 11.62731 | 83.25759 | 37807 ft | 510 kts | 305° |
| 2026-05-03 22:43 | 11.67045 | 83.20039 | 37807 ft | 510 kts | 305° |
| 2026-05-03 22:43 | 11.71379 | 83.14278 | 37808 ft | 511 kts | 305° |
| 2026-05-03 22:44 | 11.75715 | 83.08504 | 37806 ft | 511 kts | 305° |
| 2026-05-03 22:44 | 11.80027 | 83.02753 | 37809 ft | 511 kts | 305° |
| 2026-05-03 22:45 | 11.84335 | 82.97004 | 37805 ft | 510 kts | 304° |
| 2026-05-03 22:45 | 11.88660 | 82.91226 | 37808 ft | 510 kts | 304° |
| 2026-05-03 22:46 | 11.92966 | 82.85470 | 37807 ft | 508 kts | 305° |
| 2026-05-03 22:46 | 11.97251 | 82.79738 | 37807 ft | 509 kts | 305° |
| 2026-05-03 22:47 | 12.01535 | 82.74004 | 37806 ft | 508 kts | 305° |
| 2026-05-03 22:47 | 12.05820 | 82.68265 | 37807 ft | 507 kts | 305° |
| 2026-05-03 22:48 | 12.10110 | 82.62516 | 37805 ft | 507 kts | 305° |
| 2026-05-03 22:48 | 12.14361 | 82.56816 | 37801 ft | 507 kts | 305° |
| 2026-05-03 22:49 | 12.18648 | 82.51064 | 37800 ft | 507 kts | 305° |
| 2026-05-03 22:49 | 12.22903 | 82.45352 | 37800 ft | 507 kts | 305° |
| 2026-05-03 22:50 | 12.27166 | 82.39625 | 37795 ft | 506 kts | 305° |
| 2026-05-03 22:50 | 12.31436 | 82.33886 | 37791 ft | 506 kts | 305° |
| 2026-05-03 22:51 | 12.35634 | 82.28239 | 37794 ft | 506 kts | 305° |
| 2026-05-03 22:51 | 12.39835 | 82.22588 | 36977 ft | 495 kts | 305° |
| 2026-05-03 22:51 | 12.41925 | 82.19773 | 35645 ft | 503 kts | 305° |
| 2026-05-03 22:52 | 12.44039 | 82.16925 | 34710 ft | 502 kts | 305° |
| 2026-05-03 22:52 | 12.46132 | 82.14106 | 33944 ft | 499 kts | 306° |
| 2026-05-03 22:52 | 12.48226 | 82.11284 | 33088 ft | 498 kts | 306° |
| 2026-05-03 22:52 | 12.50304 | 82.08482 | 32205 ft | 498 kts | 306° |
| 2026-05-03 22:53 | 12.52396 | 82.05662 | 31308 ft | 499 kts | 305° |
| 2026-05-03 22:53 | 12.54321 | 82.02694 | 30401 ft | 497 kts | 297° |
| 2026-05-03 22:53 | 12.55745 | 81.99496 | 29863 ft | 488 kts | 288° |
| 2026-05-03 22:53 | 12.56668 | 81.96220 | 29367 ft | 479 kts | 282° |
| 2026-05-03 22:54 | 12.57401 | 81.92952 | 28816 ft | 473 kts | 281° |
| 2026-05-03 22:54 | 12.58115 | 81.89679 | 28247 ft | 468 kts | 281° |
| 2026-05-03 22:54 | 12.58810 | 81.86455 | 27696 ft | 464 kts | 281° |
| 2026-05-03 22:54 | 12.59499 | 81.83243 | 27119 ft | 460 kts | 281° |
| 2026-05-03 22:55 | 12.60174 | 81.80081 | 26539 ft | 456 kts | 281° |
| 2026-05-03 22:55 | 12.60846 | 81.76917 | 25958 ft | 453 kts | 281° |
| 2026-05-03 22:55 | 12.61507 | 81.73800 | 25378 ft | 449 kts | 281° |
| 2026-05-03 22:55 | 12.62168 | 81.70673 | 24794 ft | 446 kts | 281° |
| 2026-05-03 22:56 | 12.62814 | 81.67612 | 24217 ft | 443 kts | 281° |
| 2026-05-03 22:56 | 12.63463 | 81.64529 | 23623 ft | 440 kts | 281° |
| 2026-05-03 22:56 | 12.64102 | 81.61495 | 23044 ft | 437 kts | 281° |
| 2026-05-03 22:56 | 12.64735 | 81.58482 | 22461 ft | 434 kts | 281° |
| 2026-05-03 22:57 | 12.65367 | 81.55473 | 21880 ft | 431 kts | 281° |
| 2026-05-03 22:57 | 12.65987 | 81.52515 | 21309 ft | 429 kts | 281° |
| 2026-05-03 22:57 | 12.66613 | 81.49529 | 20709 ft | 426 kts | 281° |
| 2026-05-03 22:57 | 12.67230 | 81.46587 | 20112 ft | 424 kts | 282° |
| 2026-05-03 22:58 | 12.67848 | 81.43636 | 19510 ft | 422 kts | 282° |
| 2026-05-03 22:58 | 12.68459 | 81.40716 | 18902 ft | 420 kts | 282° |
| 2026-05-03 22:58 | 12.69069 | 81.37798 | 18295 ft | 417 kts | 282° |
| 2026-05-03 22:58 | 12.69671 | 81.34914 | 17692 ft | 415 kts | 282° |
| 2026-05-03 22:59 | 12.70270 | 81.32046 | 17087 ft | 412 kts | 282° |
| 2026-05-03 22:59 | 12.70863 | 81.29207 | 16488 ft | 410 kts | 282° |
| 2026-05-03 22:59 | 12.71450 | 81.26390 | 15887 ft | 407 kts | 282° |
| 2026-05-03 22:59 | 12.72042 | 81.23554 | 15271 ft | 405 kts | 283° |
| 2026-05-03 23:00 | 12.72628 | 81.20740 | 14659 ft | 403 kts | 283° |
| 2026-05-03 23:00 | 12.73207 | 81.17962 | 14052 ft | 401 kts | 283° |
| 2026-05-03 23:00 | 12.73789 | 81.15166 | 13436 ft | 399 kts | 283° |
| 2026-05-03 23:00 | 12.74363 | 81.12407 | 12822 ft | 396 kts | 283° |
| 2026-05-03 23:01 | 12.74929 | 81.09686 | 12216 ft | 394 kts | 283° |
| 2026-05-03 23:01 | 12.75499 | 81.06938 | 11601 ft | 391 kts | 283° |
| 2026-05-03 23:01 | 12.76064 | 81.04220 | 10994 ft | 388 kts | 283° |
| 2026-05-03 23:01 | 12.76618 | 81.01553 | 10520 ft | 381 kts | 283° |
| 2026-05-03 23:02 | 12.77157 | 80.98948 | 10426 ft | 364 kts | 284° |
| 2026-05-03 23:02 | 12.77665 | 80.96496 | 10327 ft | 348 kts | 284° |
| 2026-05-03 23:02 | 12.78157 | 80.94123 | 10191 ft | 335 kts | 284° |
| 2026-05-03 23:02 | 12.78635 | 80.91815 | 10039 ft | 324 kts | 284° |
| 2026-05-03 23:03 | 12.79092 | 80.89608 | 9891 ft | 313 kts | 284° |
| 2026-05-03 23:03 | 12.79535 | 80.87472 | 9723 ft | 304 kts | 284° |
| 2026-05-03 23:03 | 12.79975 | 80.85347 | 9391 ft | 301 kts | 284° |
| 2026-05-03 23:03 | 12.80406 | 80.83294 | 9199 ft | 293 kts | 286° |
| 2026-05-03 23:04 | 12.81121 | 80.81358 | 8714 ft | 294 kts | 297° |
| 2026-05-03 23:04 | 12.82006 | 80.79505 | 8521 ft | 287 kts | 298° |
| 2026-05-03 23:04 | 12.82894 | 80.77677 | 8287 ft | 281 kts | 298° |
| 2026-05-03 23:04 | 12.83749 | 80.75906 | 8084 ft | 275 kts | 298° |
| 2026-05-03 23:05 | 12.84582 | 80.74171 | 7901 ft | 271 kts | 298° |
| 2026-05-03 23:05 | 12.85416 | 80.72435 | 7751 ft | 270 kts | 298° |
| 2026-05-03 23:05 | 12.86249 | 80.70695 | 7684 ft | 271 kts | 298° |
| 2026-05-03 23:05 | 12.87073 | 80.68977 | 7547 ft | 270 kts | 297° |
| 2026-05-03 23:06 | 12.87901 | 80.67249 | 7221 ft | 270 kts | 297° |
| 2026-05-03 23:06 | 12.88723 | 80.65533 | 6761 ft | 267 kts | 297° |
| 2026-05-03 23:06 | 12.89533 | 80.63840 | 6291 ft | 264 kts | 297° |
| 2026-05-03 23:06 | 12.90346 | 80.62143 | 5815 ft | 262 kts | 297° |
| 2026-05-03 23:07 | 12.91144 | 80.60477 | 5343 ft | 260 kts | 296° |
| 2026-05-03 23:07 | 12.91929 | 80.58837 | 4954 ft | 260 kts | 296° |
| 2026-05-03 23:07 | 12.92726 | 80.57170 | 4588 ft | 262 kts | 296° |
| 2026-05-03 23:07 | 12.93526 | 80.55498 | 4143 ft | 261 kts | 295° |
| 2026-05-03 23:08 | 12.94323 | 80.53831 | 3668 ft | 258 kts | 294° |
| 2026-05-03 23:08 | 12.95108 | 80.52192 | 3240 ft | 255 kts | 294° |
| 2026-05-03 23:08 | 12.95886 | 80.50563 | 2990 ft | 251 kts | 294° |
| 2026-05-03 23:08 | 12.96845 | 80.49095 | 2761 ft | 249 kts | 309° |
| 2026-05-03 23:09 | 12.97986 | 80.47814 | 2756 ft | 237 kts | 310° |
| 2026-05-03 23:09 | 12.99094 | 80.46587 | 2631 ft | 230 kts | 310° |
| 2026-05-03 23:09 | 13.00184 | 80.45377 | 2374 ft | 230 kts | 310° |
| 2026-05-03 23:09 | 13.01255 | 80.44190 | 2307 ft | 230 kts | 310° |
| 2026-05-03 23:10 | 13.02352 | 80.42970 | 2293 ft | 231 kts | 310° |
| 2026-05-03 23:10 | 13.03447 | 80.41756 | 2294 ft | 232 kts | 310° |
| 2026-05-03 23:10 | 13.04542 | 80.40540 | 2292 ft | 232 kts | 309° |
| 2026-05-03 23:10 | 13.05632 | 80.39320 | 2289 ft | 233 kts | 307° |
| 2026-05-03 23:11 | 13.06312 | 80.37859 | 2277 ft | 227 kts | 276° |
| 2026-05-03 23:11 | 13.06195 | 80.36282 | 2096 ft | 221 kts | 255° |
| 2026-05-03 23:11 | 13.05770 | 80.34759 | 1833 ft | 218 kts | 250° |
| 2026-05-03 23:11 | 13.05263 | 80.33330 | 1803 ft | 211 kts | 248° |
| 2026-05-03 23:12 | 13.04724 | 80.31924 | 1801 ft | 211 kts | 247° |
| 2026-05-03 23:12 | 13.04186 | 80.30540 | 1802 ft | 205 kts | 247° |
| 2026-05-03 23:12 | 13.03680 | 80.29225 | 1801 ft | 191 kts | 247° |
| 2026-05-03 23:12 | 13.03213 | 80.27995 | 1808 ft | 175 kts | 247° |
| 2026-05-03 23:13 | 13.02787 | 80.26871 | 1725 ft | 164 kts | 248° |
| 2026-05-03 23:13 | 13.02391 | 80.25827 | 1518 ft | 148 kts | 247° |
| 2026-05-03 23:13 | 13.02028 | 80.24865 | 1348 ft | 142 kts | 247° |
| 2026-05-03 23:13 | 13.01675 | 80.23931 | 1175 ft | 140 kts | 248° |
| 2026-05-03 23:14 | 13.01326 | 80.23003 | 997 ft | 140 kts | 248° |
| 2026-05-03 23:14 | 13.00969 | 80.22057 | 812 ft | 142 kts | 248° |
| 2026-05-03 23:14 | 13.00607 | 80.21122 | 629 ft | 142 kts | 247° |
| 2026-05-03 23:14 | 13.00235 | 80.20169 | 461 ft | 145 kts | 249° |
| 2026-05-03 23:15 | 12.99886 | 80.19204 | 267 ft | 146 kts | 248° |
| 2026-05-03 23:15 | 12.99513 | 80.18227 | 79 ft | 145 kts | 249° |
| 2026-05-03 23:15 | 12.99190 | 80.17357 | 66 ft | 115 kts | 249° |
| 2026-05-03 23:15 | 12.98947 | 80.16708 | 66 ft | 81 kts | 249° |
| 2026-05-03 23:16 | 12.98796 | 80.16299 | 66 ft | 46 kts | 249° |
| 2026-05-03 23:16 | 12.98697 | 80.16040 | 66 ft | 33 kts | 249° |
| 2026-05-03 23:16 | 12.98632 | 80.15861 | 66 ft | 21 kts | 246° |
| 2026-05-03 23:16 | 12.98575 | 80.15713 | 66 ft | 24 kts | 249° |
| 2026-05-03 23:17 | 12.98514 | 80.15548 | 66 ft | 24 kts | 249° |
| 2026-05-03 23:17 | 12.98443 | 80.15456 | 66 ft | 13 kts | 165° |
| 2026-05-03 23:17 | 12.98392 | 80.15536 | 66 ft | 13 kts | 107° |
| 2026-05-03 23:17 | 12.98366 | 80.15629 | 66 ft | 13 kts | 105° |
| 2026-05-03 23:18 | 12.98342 | 80.15720 | 66 ft | 13 kts | 105° |
| 2026-05-03 23:18 | 12.98317 | 80.15811 | 66 ft | 13 kts | 106° |
| 2026-05-03 23:18 | 12.98292 | 80.15906 | 66 ft | 13 kts | 97° |
| 2026-05-03 23:18 | 12.98309 | 80.15997 | 66 ft | 13 kts | 70° |
| 2026-05-03 23:19 | 12.98342 | 80.16086 | 66 ft | 13 kts | 69° |
| 2026-05-03 23:19 | 12.98383 | 80.16197 | 66 ft | 17 kts | 72° |
| 2026-05-03 23:19 | 12.98404 | 80.16251 | 66 ft | 4 kts | 43° |
| 2026-05-03 23:19 | 12.98433 | 80.16258 | 66 ft | 4 kts | 354° |
| 2026-05-03 23:20 | 12.98459 | 80.16253 | 66 ft | 0 kts | 339° |
| 2026-05-03 23:20 | 12.98465 | 80.16251 | 66 ft | 1 kts | 339° |
| 2026-05-03 23:20 | 12.98466 | 80.16251 | 66 ft | 0 kts | 339° |